Time;durP1;ratioP1;P1;durP2;ratioP2;P2;SDS_P1;SDS_P2;PMS_P1;PMS_P2;Temp;Humidity;BMP_temperature;BMP_pressure;BME280_temperature;BME280_humidity;BME280_pressure;Samples;Min_cycle;Max_cycle;Signal;HPM_P1;HPM_P2
2024/04/18 00:01:38;;;;;;;0.17;0.17;;;6.10;87.10;;;;;;4808373;29;20129;-77
2024/04/18 00:04:04;;;;;;;0.25;0.20;;;6.20;87.10;;;;;;4839574;29;20097;-77
2024/04/18 00:06:44;;;;;;;0.20;0.20;;;6.20;87.10;;;;;;4839613;29;20049;-77
2024/04/18 00:09:09;;;;;;;0.20;0.20;;;6.20;87.10;;;;;;4823298;29;20038;-77
2024/04/18 00:11:35;;;;;;;0.20;0.20;;;6.20;87.10;;;;;;4823002;29;20483;-77
2024/04/18 00:14:01;;;;;;;0.20;0.20;;;6.20;87.20;;;;;;4823475;29;20042;-77
2024/04/18 00:16:27;;;;;;;0.10;0.10;;;6.10;87.20;;;;;;4839493;29;20393;-77
2024/04/18 00:18:55;;;;;;;1.35;0.30;;;6.20;87.20;;;;;;4822870;29;20042;-77
2024/04/18 00:21:20;;;;;;;0.20;0.20;;;6.10;87.20;;;;;;4807196;29;20058;-77
2024/04/18 00:23:47;;;;;;;0.30;0.30;;;6.10;87.30;;;;;;4839735;29;20417;-77
2024/04/18 00:26:13;;;;;;;0.20;0.10;;;6.10;87.30;;;;;;4822878;29;20050;-77
2024/04/18 00:28:38;;;;;;;1.35;0.22;;;6.20;87.40;;;;;;4822329;29;20046;-77
2024/04/18 00:31:04;;;;;;;0.20;0.20;;;6.10;87.30;;;;;;4822022;29;20563;-77
2024/04/18 00:33:30;;;;;;;0.28;0.28;;;6.10;87.40;;;;;;4825157;29;20045;-77
2024/04/18 00:35:56;;;;;;;0.25;0.25;;;6.10;87.40;;;;;;4825626;29;20174;-77
2024/04/18 00:38:21;;;;;;;0.20;0.20;;;6.10;87.40;;;;;;4825907;29;20041;-77
2024/04/18 00:40:48;;;;;;;0.20;0.20;;;6.10;87.50;;;;;;4825138;29;20046;-77
2024/04/18 00:43:14;;;;;;;0.30;0.30;;;6.10;87.50;;;;;;4825701;29;20057;-77
2024/04/18 00:45:39;;;;;;;0.13;0.13;;;6.20;87.50;;;;;;4810542;29;20124;-77
2024/04/18 00:48:06;;;;;;;0.20;0.20;;;6.10;87.40;;;;;;4825340;29;20049;-77
2024/04/18 00:50:32;;;;;;;0.32;0.28;;;6.10;87.40;;;;;;4810513;29;20110;-77
2024/04/18 00:52:59;;;;;;;0.20;0.20;;;6.10;87.40;;;;;;4825491;29;20038;-77
2024/04/18 00:55:28;;;;;;;0.10;0.10;;;6.00;87.30;;;;;;4842216;29;20449;-77
2024/04/18 00:57:57;;;;;;;0.90;0.30;;;6.10;87.40;;;;;;4811232;29;20111;-77
2024/04/18 01:00:24;;;;;;;0.30;0.30;;;6.10;87.40;;;;;;4841799;29;20034;-78
2024/04/18 01:02:50;;;;;;;0.17;0.17;;;6.00;87.30;;;;;;4810502;29;20046;-77
2024/04/18 01:05:16;;;;;;;0.17;0.17;;;6.00;87.30;;;;;;4825411;29;20046;-77
2024/04/18 01:07:43;;;;;;;0.15;0.15;;;6.00;87.30;;;;;;4825190;29;20068;-77
2024/04/18 01:10:08;;;;;;;0.10;0.10;;;6.00;87.30;;;;;;4810110;29;20137;-77
2024/04/18 01:12:34;;;;;;;0.20;0.20;;;6.00;87.30;;;;;;4825549;29;20121;-77
2024/04/18 01:15:00;;;;;;;0.57;0.30;;;6.00;87.30;;;;;;4825338;29;20198;-77
2024/04/18 01:17:26;;;;;;;0.63;0.20;;;6.00;87.40;;;;;;4793038;29;20062;-77
2024/04/18 01:19:51;;;;;;;0.20;0.20;;;6.00;87.40;;;;;;4809125;29;20039;-77
2024/04/18 01:22:18;;;;;;;0.10;0.10;;;6.10;87.50;;;;;;4795047;29;20404;-77
2024/04/18 01:24:44;;;;;;;0.15;0.15;;;6.00;87.50;;;;;;4842019;29;20201;-77
2024/04/18 01:27:10;;;;;;;0.28;0.28;;;6.00;87.50;;;;;;4810215;29;20499;-77
2024/04/18 01:29:36;;;;;;;0.13;0.10;;;5.90;87.40;;;;;;4841599;29;20175;-77
2024/04/18 01:32:01;;;;;;;0.25;0.17;;;5.90;87.50;;;;;;4825141;29;20046;-77
2024/04/18 01:34:28;;;;;;;0.30;0.30;;;5.80;87.50;;;;;;4825040;29;20034;-77
2024/04/18 01:36:54;;;;;;;0.50;0.40;;;5.80;87.50;;;;;;4825474;29;20041;-78
2024/04/18 01:39:26;;;;;;;0.45;0.38;;;5.80;87.60;;;;;;4809891;29;20038;-77
2024/04/18 01:41:53;;;;;;;0.43;0.20;;;5.70;87.70;;;;;;4823989;29;20031;-77
2024/04/18 01:44:19;;;;;;;0.10;0.10;;;5.70;87.80;;;;;;4840630;29;20034;-77
2024/04/18 01:46:44;;;;;;;0.10;0.10;;;5.70;87.90;;;;;;4824854;29;20064;-77
2024/04/18 01:49:10;;;;;;;0.10;0.10;;;5.60;87.90;;;;;;4809691;29;20500;-77
2024/04/18 01:51:38;;;;;;;0.35;0.20;;;5.50;88.00;;;;;;4824799;29;20038;-77
2024/04/18 01:54:04;;;;;;;0.35;0.20;;;5.60;88.10;;;;;;4809830;29;20401;-77
2024/04/18 01:56:29;;;;;;;0.35;0.17;;;5.50;88.80;;;;;;4841444;29;20038;-77
2024/04/18 01:59:03;;;;;;;0.35;0.20;;;5.50;88.20;;;;;;4810370;29;20430;-77
2024/04/18 02:01:29;;;;;;;0.13;0.13;;;5.50;88.20;;;;;;4841160;29;20042;-77
2024/04/18 02:03:55;;;;;;;0.13;0.13;;;5.50;88.30;;;;;;4825374;29;20046;-77
2024/04/18 02:06:21;;;;;;;0.10;0.10;;;5.50;88.30;;;;;;4841419;29;20532;-77
2024/04/18 02:08:52;;;;;;;0.20;0.15;;;5.40;88.30;;;;;;4809600;29;20061;-78
2024/04/18 02:11:17;;;;;;;0.10;0.10;;;5.40;88.30;;;;;;4840983;29;20053;-77
2024/04/18 02:13:43;;;;;;;0.20;0.20;;;5.30;88.20;;;;;;4809710;29;20042;-77
2024/04/18 02:16:08;;;;;;;0.10;0.10;;;5.30;88.30;;;;;;4809434;29;20059;-78
2024/04/18 02:18:35;;;;;;;0.10;0.10;;;5.30;88.40;;;;;;4794203;29;20073;-77
2024/04/18 02:21:00;;;;;;;0.10;0.10;;;5.30;88.50;;;;;;4840912;29;20448;-78
2024/04/18 02:23:26;;;;;;;0.50;0.20;;;5.20;88.50;;;;;;4808379;29;20046;-77
2024/04/18 02:25:52;;;;;;;0.20;0.20;;;5.20;88.50;;;;;;4824299;29;20042;-77
2024/04/18 02:28:18;;;;;;;0.10;0.10;;;5.20;88.50;;;;;;4823826;29;20050;-77
2024/04/18 02:30:44;;;;;;;0.65;0.20;;;5.10;88.50;;;;;;4809212;29;20061;-77
2024/04/18 02:33:13;;;;;;;0.35;0.28;;;5.10;88.60;;;;;;4824700;29;20049;-78
2024/04/18 02:35:39;;;;;;;0.20;0.20;;;5.10;88.60;;;;;;4809523;29;20121;-77
2024/04/18 02:38:05;;;;;;;0.20;0.20;;;5.10;88.60;;;;;;4808870;29;20134;-77
2024/04/18 02:40:35;;;;;;;0.50;0.30;;;5.00;88.60;;;;;;4824241;29;20135;-78
2024/04/18 02:43:01;;;;;;;0.20;0.20;;;4.90;88.60;;;;;;4824189;29;20056;-77
2024/04/18 02:45:27;;;;;;;0.10;0.10;;;4.90;88.60;;;;;;4840742;29;20129;-77
2024/04/18 02:47:53;;;;;;;0.60;0.40;;;4.90;88.60;;;;;;4809131;29;20062;-77
2024/04/18 02:50:18;;;;;;;0.17;0.15;;;4.90;88.60;;;;;;4840746;29;20045;-79
2024/04/18 02:52:45;;;;;;;0.47;0.30;;;4.90;88.70;;;;;;4824038;29;20050;-77
2024/04/18 02:55:10;;;;;;;0.20;0.20;;;4.90;88.70;;;;;;4823399;29;20038;-77
2024/04/18 02:57:36;;;;;;;0.55;0.30;;;4.80;88.70;;;;;;4823264;29;20412;-78
2024/04/18 03:00:02;;;;;;;0.20;0.20;;;4.80;88.60;;;;;;4824464;29;20083;-77
2024/04/18 03:02:28;;;;;;;0.50;0.30;;;4.80;88.60;;;;;;4823889;29;20077;-77
2024/04/18 03:04:54;;;;;;;0.30;0.30;;;4.70;88.60;;;;;;4808697;29;20527;-78
2024/04/18 03:07:20;;;;;;;0.13;0.13;;;4.70;88.70;;;;;;4840119;29;20405;-78
2024/04/18 03:09:46;;;;;;;0.15;0.15;;;4.80;88.80;;;;;;4807857;29;20050;-77
2024/04/18 03:12:12;;;;;;;0.30;0.20;;;4.70;88.70;;;;;;4823593;29;20045;-77
2024/04/18 03:14:39;;;;;;;0.15;0.15;;;4.70;88.80;;;;;;4823727;29;20038;-77
2024/04/18 03:17:05;;;;;;;0.10;0.10;;;4.70;88.70;;;;;;4824035;29;20094;-77
2024/04/18 03:19:30;;;;;;;0.10;0.10;;;4.60;88.70;;;;;;4840391;29;20041;-77
2024/04/18 03:22:01;;;;;;;0.20;0.20;;;4.60;88.80;;;;;;4840089;29;20054;-77
2024/04/18 03:24:26;;;;;;;0.22;0.20;;;4.60;88.80;;;;;;4823604;29;20904;-77
2024/04/18 03:26:52;;;;;;;0.10;0.10;;;4.50;88.80;;;;;;4823028;29;20122;-78
2024/04/18 03:29:18;;;;;;;0.43;0.20;;;4.50;88.80;;;;;;4840231;29;20046;-77
2024/04/18 03:31:48;;;;;;;0.15;0.15;;;4.50;88.90;;;;;;4808056;29;20034;-77
2024/04/18 03:34:14;;;;;;;0.40;0.40;;;4.60;88.90;;;;;;4808463;29;20141;-78
2024/04/18 03:36:43;;;;;;;0.10;0.10;;;4.40;88.90;;;;;;4823666;29;20121;-77
2024/04/18 03:39:09;;;;;;;1.55;0.30;;;4.40;88.90;;;;;;4823022;29;20117;-78
2024/04/18 03:41:36;;;;;;;0.20;0.20;;;4.40;88.90;;;;;;4840524;29;20121;-77
2024/04/18 03:44:02;;;;;;;0.20;0.20;;;4.40;88.90;;;;;;4808146;29;20034;-77
2024/04/18 03:46:28;;;;;;;0.20;0.20;;;4.30;88.90;;;;;;4823450;29;20048;-77
2024/04/18 03:48:54;;;;;;;0.28;0.28;;;4.30;89.00;;;;;;4839997;29;20042;-77
2024/04/18 03:51:20;;;;;;;0.20;0.20;;;4.40;89.10;;;;;;4840045;29;20052;-77
2024/04/18 03:53:45;;;;;;;0.47;0.30;;;4.20;88.90;;;;;;4823469;29;20049;-77
2024/04/18 03:56:11;;;;;;;0.20;0.15;;;4.30;89.00;;;;;;4823416;29;20053;-77
2024/04/18 03:58:39;;;;;;;0.13;0.13;;;4.20;89.00;;;;;;4823449;29;20042;-78
2024/04/18 04:01:05;;;;;;;0.20;0.20;;;4.20;89.00;;;;;;4823767;29;20061;-77
2024/04/18 04:03:31;;;;;;;0.70;0.20;;;4.20;89.10;;;;;;4839671;29;20042;-78
2024/04/18 04:05:56;;;;;;;0.22;0.22;;;4.10;89.00;;;;;;4822567;29;20039;-77
2024/04/18 04:08:22;;;;;;;0.20;0.20;;;4.20;89.00;;;;;;4810646;29;20034;-77
2024/04/18 04:10:48;;;;;;;0.40;0.20;;;4.20;89.10;;;;;;4826487;29;20058;-78
2024/04/18 04:13:14;;;;;;;0.10;0.10;;;4.10;89.00;;;;;;4842830;29;20141;-77
2024/04/18 04:15:40;;;;;;;0.47;0.30;;;4.10;89.00;;;;;;4811441;29;20166;-78
2024/04/18 04:18:05;;;;;;;0.13;0.13;;;4.10;89.00;;;;;;4843228;29;20481;-77
2024/04/18 04:20:31;;;;;;;0.35;0.35;;;4.10;89.10;;;;;;4826264;29;20049;-77
2024/04/18 04:22:57;;;;;;;0.20;0.20;;;4.10;88.90;;;;;;4842694;29;20057;-77
2024/04/18 04:25:22;;;;;;;0.70;0.30;;;4.10;89.00;;;;;;4843292;29;20042;-77
2024/04/18 04:27:48;;;;;;;0.30;0.30;;;4.00;89.00;;;;;;4826155;29;20045;-79
2024/04/18 04:30:16;;;;;;;0.20;0.20;;;4.00;89.10;;;;;;4826038;29;20081;-77
2024/04/18 04:32:42;;;;;;;0.17;0.13;;;4.10;89.20;;;;;;4811324;29;20154;-77
2024/04/18 04:35:09;;;;;;;0.30;0.20;;;3.90;89.10;;;;;;4811103;29;20059;-77
2024/04/18 04:37:35;;;;;;;0.65;0.30;;;3.90;89.10;;;;;;4796220;29;20042;-77
2024/04/18 04:40:02;;;;;;;0.20;0.20;;;3.80;89.10;;;;;;4810971;29;20464;-77
2024/04/18 04:42:28;;;;;;;0.40;0.30;;;3.90;89.20;;;;;;4811143;29;20120;-77
2024/04/18 04:44:54;;;;;;;0.25;0.20;;;3.90;89.20;;;;;;4826049;29;20141;-77
2024/04/18 04:47:19;;;;;;;0.20;0.20;;;3.90;89.10;;;;;;4825814;29;20129;-77
2024/04/18 04:49:45;;;;;;;0.30;0.30;;;3.90;89.10;;;;;;4842517;29;20503;-77
2024/04/18 04:52:27;;;;;;;0.20;0.20;;;3.90;89.10;;;;;;4810158;29;20042;-77
2024/04/18 04:54:56;;;;;;;0.10;0.10;;;3.90;89.10;;;;;;4811594;29;20050;-77
2024/04/18 04:57:22;;;;;;;0.30;0.30;;;3.90;89.10;;;;;;4825882;29;20041;-77
2024/04/18 04:59:48;;;;;;;0.20;0.20;;;3.90;89.10;;;;;;4825306;29;20512;-77
2024/04/18 05:02:14;;;;;;;0.10;0.10;;;3.90;89.10;;;;;;4810519;29;20041;-78
2024/04/18 05:04:39;;;;;;;0.68;0.35;;;3.90;89.10;;;;;;4825668;29;20053;-77
2024/04/18 05:07:06;;;;;;;0.30;0.20;;;3.90;89.00;;;;;;4842444;29;20113;-77
2024/04/18 05:09:32;;;;;;;0.25;0.20;;;3.90;89.00;;;;;;4825830;29;20046;-77
2024/04/18 05:11:58;;;;;;;0.50;0.30;;;3.80;89.10;;;;;;4809362;29;20054;-77
2024/04/18 05:14:24;;;;;;;0.52;0.30;;;3.90;89.10;;;;;;4825830;29;20080;-77
2024/04/18 05:16:50;;;;;;;0.20;0.20;;;3.90;89.10;;;;;;4825704;29;20077;-77
2024/04/18 05:19:16;;;;;;;0.30;0.30;;;3.90;89.10;;;;;;4825289;29;20056;-77
2024/04/18 05:21:41;;;;;;;0.20;0.20;;;3.90;89.00;;;;;;4810631;29;20037;-76
2024/04/18 05:24:07;;;;;;;0.20;0.20;;;4.00;89.00;;;;;;4842126;29;20045;-77
2024/04/18 05:26:33;;;;;;;1.45;0.40;;;4.00;89.00;;;;;;4825470;29;20046;-77
2024/04/18 05:31:38;;;;;;;0.20;0.17;;;3.90;88.90;;;;;;4841787;29;20136;-76
2024/04/18 05:34:03;;;;;;;0.38;0.38;;;4.00;88.90;;;;;;4810049;29;20070;-76
2024/04/18 05:36:29;;;;;;;0.20;0.20;;;4.10;88.90;;;;;;4841834;29;20045;-76
2024/04/18 05:38:55;;;;;;;0.40;0.25;;;4.10;88.80;;;;;;4809923;29;20110;-76
2024/04/18 05:41:20;;;;;;;0.75;0.30;;;4.10;88.80;;;;;;4842055;29;20046;-76
2024/04/18 05:43:46;;;;;;;0.20;0.20;;;4.10;88.70;;;;;;4841834;29;20049;-77
2024/04/18 05:46:12;;;;;;;0.20;0.20;;;4.20;88.70;;;;;;4841800;29;20085;-77
2024/04/18 05:48:38;;;;;;;0.40;0.30;;;4.20;88.60;;;;;;4824649;29;20129;-78
2024/04/18 05:51:05;;;;;;;0.50;0.40;;;4.20;88.70;;;;;;4810194;29;20060;-78
2024/04/18 05:53:31;;;;;;;0.70;0.60;;;4.30;88.60;;;;;;4823807;29;20035;-77
2024/04/18 05:55:57;;;;;;;0.43;0.43;;;4.40;88.60;;;;;;4809985;29;20057;-77
2024/04/18 05:58:23;;;;;;;0.40;0.40;;;4.40;88.40;;;;;;4810279;29;20041;-76
2024/04/18 06:00:48;;;;;;;0.35;0.30;;;4.40;88.30;;;;;;4810099;29;20037;-76
2024/04/18 06:03:14;;;;;;;0.50;0.50;;;4.50;88.20;;;;;;4824953;29;20102;-77
2024/04/18 06:05:40;;;;;;;0.28;0.28;;;4.60;88.10;;;;;;4794603;29;20041;-76
2024/04/18 06:08:05;;;;;;;0.30;0.28;;;4.60;88.10;;;;;;4809998;29;20046;-77
2024/04/18 06:10:31;;;;;;;0.45;0.30;;;4.70;88.10;;;;;;4810237;29;20389;-76
2024/04/18 06:12:58;;;;;;;0.20;0.20;;;4.70;88.00;;;;;;4809598;29;20074;-77
2024/04/18 06:15:24;;;;;;;0.40;0.40;;;4.80;88.00;;;;;;4841345;29;20509;-76
2024/04/18 06:17:50;;;;;;;1.00;0.30;;;4.80;87.90;;;;;;4809889;29;20124;-77
2024/04/18 06:20:16;;;;;;;0.45;0.40;;;4.90;87.80;;;;;;4824507;29;20038;-77
2024/04/18 06:22:42;;;;;;;1.65;0.50;;;5.00;87.80;;;;;;4841157;29;20053;-77
2024/04/18 06:25:08;;;;;;;0.57;0.30;;;5.10;87.60;;;;;;4823575;29;20054;-76
2024/04/18 06:27:33;;;;;;;0.43;0.43;;;5.10;87.40;;;;;;4823197;29;20054;-76
2024/04/18 06:29:59;;;;;;;0.32;0.30;;;5.20;87.40;;;;;;4841084;29;20405;-76
2024/04/18 06:32:25;;;;;;;1.70;0.40;;;5.30;87.20;;;;;;4823925;29;20046;-78
2024/04/18 06:34:51;;;;;;;0.40;0.20;;;5.40;87.10;;;;;;4823486;29;20042;-79
2024/04/18 06:37:16;;;;;;;0.40;0.40;;;5.50;87.00;;;;;;4842092;29;20042;-75
2024/04/18 06:39:42;;;;;;;0.63;0.30;;;5.50;86.90;;;;;;4841195;29;20516;-76
2024/04/18 06:42:08;;;;;;;0.20;0.20;;;5.60;86.90;;;;;;4841580;29;20573;-75
2024/04/18 06:44:33;;;;;;;0.52;0.32;;;5.60;86.70;;;;;;4844365;29;20073;-76
2024/04/18 06:46:59;;;;;;;0.20;0.20;;;5.70;86.70;;;;;;4809421;29;20084;-75
2024/04/18 06:49:25;;;;;;;0.30;0.30;;;5.80;86.60;;;;;;4824475;29;20039;-75
2024/04/18 06:51:50;;;;;;;0.50;0.28;;;5.80;86.50;;;;;;4840797;29;20037;-76
2024/04/18 06:54:16;;;;;;;0.40;0.40;;;5.90;86.50;;;;;;4824131;29;20030;-76
2024/04/18 06:56:42;;;;;;;0.30;0.20;;;5.90;86.50;;;;;;4840755;29;20083;-76
2024/04/18 06:59:07;;;;;;;1.40;0.40;;;6.00;86.50;;;;;;4807909;29;20043;-76
2024/04/18 07:01:33;;;;;;;0.47;0.38;;;6.00;86.40;;;;;;4824395;29;20057;-76
2024/04/18 07:03:59;;;;;;;0.30;0.30;;;6.00;86.40;;;;;;4824141;29;20050;-76
2024/04/18 07:06:25;;;;;;;0.30;0.30;;;6.20;86.50;;;;;;4823248;29;20043;-77
2024/04/18 07:08:51;;;;;;;0.22;0.22;;;6.30;86.40;;;;;;4824337;29;20489;-76
2024/04/18 07:11:18;;;;;;;0.40;0.30;;;6.40;86.20;;;;;;4808720;29;20053;-75
2024/04/18 07:13:44;;;;;;;0.38;0.38;;;6.40;85.90;;;;;;4823472;29;20042;-76
2024/04/18 07:16:09;;;;;;;0.20;0.20;;;6.40;85.80;;;;;;4823054;29;20125;-75
2024/04/18 07:18:35;;;;;;;0.40;0.40;;;6.50;85.70;;;;;;4823976;29;20102;-75
2024/04/18 07:21:10;;;;;;;0.30;0.28;;;6.60;85.70;;;;;;4840604;29;22014;-76
2024/04/18 07:23:36;;;;;;;0.28;0.25;;;6.70;85.70;;;;;;4824187;29;20056;-76
2024/04/18 07:26:02;;;;;;;0.17;0.17;;;6.70;85.70;;;;;;4823429;29;20137;-76
2024/04/18 07:28:27;;;;;;;0.50;0.38;;;6.90;85.60;;;;;;4840446;29;20050;-76
2024/04/18 07:30:54;;;;;;;0.32;0.32;;;6.90;85.50;;;;;;4823676;29;20065;-76
2024/04/18 07:33:19;;;;;;;0.40;0.40;;;6.90;85.30;;;;;;4824051;29;20057;-76
2024/04/18 07:35:59;;;;;;;0.30;0.20;;;6.90;85.10;;;;;;4809140;29;20461;-76
2024/04/18 07:38:27;;;;;;;0.28;0.28;;;7.00;85.10;;;;;;4840621;29;20033;-76
2024/04/18 07:40:53;;;;;;;0.90;0.30;;;7.00;85.10;;;;;;4823897;29;20120;-76
2024/04/18 07:43:19;;;;;;;0.20;0.15;;;7.20;85.10;;;;;;4826136;29;20133;-76
2024/04/18 07:45:45;;;;;;;0.47;0.40;;;7.20;85.00;;;;;;4843705;29;20110;-75
2024/04/18 07:48:12;;;;;;;0.20;0.20;;;7.40;85.10;;;;;;4827031;29;20236;-76
2024/04/18 07:50:37;;;;;;;0.32;0.32;;;7.40;84.80;;;;;;4826718;29;20149;-75
2024/04/18 07:53:03;;;;;;;0.10;0.10;;;7.50;84.70;;;;;;4800502;29;20117;-75
2024/04/18 07:55:30;;;;;;;0.68;0.45;;;7.60;84.60;;;;;;4825964;29;20156;-76
2024/04/18 07:57:55;;;;;;;0.30;0.30;;;7.70;84.60;;;;;;4796785;29;20390;-76
2024/04/18 08:00:21;;;;;;;0.30;0.30;;;7.70;84.40;;;;;;4826745;29;20034;-75
2024/04/18 08:02:49;;;;;;;0.38;0.32;;;7.90;84.30;;;;;;4844022;29;20110;-75
2024/04/18 08:05:18;;;;;;;0.55;0.30;;;8.00;84.20;;;;;;4812413;29;20050;-76
2024/04/18 08:07:44;;;;;;;0.30;0.22;;;8.10;83.90;;;;;;4795175;29;20103;-76
2024/04/18 08:10:10;;;;;;;0.52;0.32;;;8.20;83.80;;;;;;4826607;29;20146;-78
2024/04/18 08:12:36;;;;;;;0.40;0.40;;;8.40;84.00;;;;;;4842925;29;20777;-76
2024/04/18 08:15:03;;;;;;;0.47;0.30;;;8.50;83.40;;;;;;4843638;29;20067;-77
2024/04/18 08:17:28;;;;;;;0.20;0.20;;;8.60;83.30;;;;;;4811851;29;20042;-77
2024/04/18 08:19:54;;;;;;;1.02;0.35;;;8.70;83.10;;;;;;4811461;29;20110;-76
2024/04/18 08:22:20;;;;;;;0.20;0.20;;;8.70;83.10;;;;;;4826788;29;20114;-76
2024/04/18 08:24:45;;;;;;;0.25;0.25;;;8.80;83.10;;;;;;4843136;29;20048;-76
2024/04/18 08:27:11;;;;;;;0.55;0.30;;;9.00;83.10;;;;;;4842732;29;20046;-76
2024/04/18 08:29:37;;;;;;;0.85;0.20;;;9.10;82.70;;;;;;4796331;29;20099;-76
2024/04/18 08:32:03;;;;;;;0.30;0.20;;;9.20;82.70;;;;;;4825475;29;20167;-76
2024/04/18 08:34:30;;;;;;;0.30;0.30;;;9.30;82.60;;;;;;4843270;29;20504;-76
2024/04/18 08:36:55;;;;;;;0.30;0.30;;;9.50;82.50;;;;;;4826372;29;20038;-76
2024/04/18 08:39:21;;;;;;;0.22;0.22;;;9.70;82.40;;;;;;4826752;29;20046;-76
2024/04/18 08:41:46;;;;;;;0.90;0.20;;;9.90;82.00;;;;;;4843119;29;20394;-76
2024/04/18 08:44:12;;;;;;;0.70;0.30;;;10.10;81.80;;;;;;4842894;29;20066;-76
2024/04/18 08:46:39;;;;;;;0.95;0.20;;;10.30;81.40;;;;;;4843257;29;20346;-76
2024/04/18 08:49:07;;;;;;;0.82;0.50;;;10.50;81.00;;;;;;4826654;29;20046;-76
2024/04/18 08:51:37;;;;;;;0.50;0.30;;;10.40;80.60;;;;;;4826418;29;20182;-76
2024/04/18 08:54:05;;;;;;;0.20;0.20;;;10.40;80.70;;;;;;4842794;29;20529;-76
2024/04/18 08:56:34;;;;;;;0.20;0.20;;;10.30;81.20;;;;;;4826437;29;20038;-76
2024/04/18 08:59:01;;;;;;;0.17;0.17;;;10.30;81.20;;;;;;4842718;29;20042;-76
2024/04/18 09:01:27;;;;;;;0.20;0.20;;;10.30;81.50;;;;;;4842608;29;20462;-76
2024/04/18 09:03:55;;;;;;;0.10;0.10;;;10.50;81.70;;;;;;4826333;29;20057;-76
2024/04/18 09:06:21;;;;;;;0.30;0.30;;;10.70;81.20;;;;;;4843239;29;20052;-75
2024/04/18 09:08:56;;;;;;;0.28;0.28;;;10.80;80.70;;;;;;4826516;29;20128;-75
2024/04/18 09:11:22;;;;;;;0.17;0.17;;;10.90;80.60;;;;;;4826265;29;20050;-76
2024/04/18 09:39:41;;;;;;;0.20;0.20;;;11.90;78.40;;;;;;4645953;30;20426;-75
2024/04/18 09:42:44;;;;;;;0.20;0.20;;;11.90;78.30;;;;;;4615224;30;20142;-75
2024/04/18 09:45:12;;;;;;;0.20;0.20;;;11.90;78.40;;;;;;4631251;30;20057;-75
2024/04/18 09:47:40;;;;;;;0.35;0.25;;;12.00;78.40;;;;;;4617798;30;20039;-74
2024/04/18 09:50:11;;;;;;;0.25;0.22;;;12.10;78.10;;;;;;4631559;30;20057;-74
2024/04/18 09:52:38;;;;;;;;;;;12.00;77.70;;;;;;4617823;30;20186;-74
2024/04/18 09:55:08;;;;;;;1.05;0.40;;;11.80;77.90;;;;;;4645737;30;19971;-74
2024/04/18 09:57:37;;;;;;;0.27;0.27;;;11.50;78.40;;;;;;4653856;30;20421;-76
2024/04/18 10:00:04;;;;;;;0.20;0.20;;;11.30;79.00;;;;;;4682908;30;20045;-75
2024/04/18 10:02:40;;;;;;;0.28;0.28;;;11.20;80.20;;;;;;4696858;30;20046;-77
2024/04/18 10:05:06;;;;;;;0.40;0.40;;;11.10;79.70;;;;;;4679544;30;20037;-75
2024/04/18 10:07:33;;;;;;;0.43;0.30;;;11.00;79.70;;;;;;4733651;30;20084;-75
2024/04/18 10:10:00;;;;;;;0.25;0.25;;;10.90;79.80;;;;;;4770465;30;20551;-76
2024/04/18 10:28:16;;;;;;;0.20;0.20;;;10.60;80.30;;;;;;4826633;29;20133;-76
2024/04/18 10:45:21;;;;;;;0.98;0.30;;;11.20;78.10;;;;;;4767570;29;20060;-76
2024/04/18 10:47:52;;;;;;;0.40;0.20;;;11.20;78.20;;;;;;4769106;30;20044;-75
2024/04/18 10:50:18;;;;;;;0.28;0.20;;;11.00;78.40;;;;;;4768728;30;20056;-76
2024/04/18 10:52:43;;;;;;;0.50;0.30;;;11.00;78.50;;;;;;4756446;30;20129;-75
2024/04/18 10:55:09;;;;;;;0.20;0.20;;;10.90;78.50;;;;;;4772380;30;20515;-76
2024/04/18 10:57:35;;;;;;;0.17;0.17;;;10.90;78.60;;;;;;4768406;30;20466;-75
2024/04/18 11:00:00;;;;;;;0.32;0.20;;;10.90;78.50;;;;;;4766642;30;20701;-77
2024/04/18 11:14:35;;;;;;;0.15;0.15;;;11.40;77.30;;;;;;4588252;31;20056;-76
2024/04/18 12:10:37;;;;;;;0.30;0.20;;;11.90;74.80;;;;;;4835165;29;20073;-74
2024/04/18 12:13:26;;;;;;;0.15;0.15;;;12.20;74.80;;;;;;4769290;29;20048;-74
2024/04/18 12:16:21;;;;;;;0.10;0.10;;;12.40;74.20;;;;;;4776679;30;20134;-73
2024/04/18 12:20:01;;;;;;;0.35;0.20;;;12.70;73.90;;;;;;4769518;30;20044;-75
2024/04/18 12:33:23;;;;;;;0.17;0.17;;;12.80;72.30;;;;;;4672989;30;20363;-76
2024/04/18 12:35:48;;;;;;;0.10;0.10;;;12.70;72.50;;;;;;4702031;30;20128;-76
2024/04/18 12:38:14;;;;;;;0.63;0.20;;;12.70;72.50;;;;;;4684526;30;20129;-75
2024/04/18 12:41:06;;;;;;;0.82;0.32;;;12.70;72.60;;;;;;4672049;30;20523;-75
2024/04/18 13:02:51;;;;;;;0.30;0.30;;;13.00;71.90;;;;;;4688446;30;20062;-76
2024/04/18 13:29:14;;;;;;;0.40;0.20;;;12.50;72.60;;;;;;4611666;31;20083;-75
2024/04/18 13:32:00;;;;;;;0.30;0.30;;;12.60;72.50;;;;;;4616499;31;20055;-73
2024/04/18 15:21:00;;;;;;;0.30;0.30;;;11.70;73.20;;;;;;4835291;29;20057;-76
2024/04/18 15:23:29;;;;;;;0.35;0.30;;;11.70;73.10;;;;;;4807399;29;20149;-76
2024/04/18 15:25:55;;;;;;;0.20;0.20;;;11.70;73.30;;;;;;4794098;29;20042;-76
2024/04/18 15:57:32;;;;;;;0.20;0.20;;;11.90;72.50;;;;;;4781573;30;20089;-78
2024/04/18 16:20:27;;;;;;;0.20;0.20;;;11.70;72.70;;;;;;4629538;31;20527;-76
2024/04/18 16:22:52;;;;;;;0.20;0.10;;;11.60;72.90;;;;;;4630366;31;20039;-74
2024/04/18 16:25:18;;;;;;;0.28;0.28;;;11.60;73.10;;;;;;4630045;31;20043;-76
2024/04/18 16:27:44;;;;;;;0.30;0.25;;;11.60;73.20;;;;;;4630208;30;20167;-77
2024/04/18 16:30:10;;;;;;;0.22;0.20;;;11.50;73.20;;;;;;4615900;31;20063;-76
2024/04/18 16:32:35;;;;;;;0.63;0.30;;;11.50;73.20;;;;;;4630010;31;20496;-74
2024/04/18 16:35:02;;;;;;;0.57;0.30;;;11.40;73.20;;;;;;4630481;31;20056;-76
2024/04/18 16:37:30;;;;;;;1.27;0.25;;;11.40;73.40;;;;;;4664452;30;20528;-76
2024/04/18 16:39:55;;;;;;;0.93;0.28;;;11.40;73.40;;;;;;4802283;29;20074;-76
2024/04/18 16:42:21;;;;;;;1.35;0.25;;;11.40;73.50;;;;;;4811754;29;20081;-77
2024/04/18 16:44:47;;;;;;;0.55;0.28;;;11.40;73.40;;;;;;4810881;29;20063;-78
2024/04/18 16:47:12;;;;;;;0.30;0.30;;;11.40;73.30;;;;;;4827330;29;20477;-76
2024/04/18 16:49:40;;;;;;;0.10;0.10;;;11.40;73.40;;;;;;4826447;29;20038;-76
2024/04/18 16:52:06;;;;;;;0.20;0.20;;;11.30;73.30;;;;;;4825892;29;20556;-77
2024/04/18 16:54:32;;;;;;;0.20;0.20;;;11.30;73.40;;;;;;4842705;29;20038;-77
2024/04/18 16:56:57;;;;;;;0.22;0.20;;;11.30;73.40;;;;;;4810837;29;20042;-76
2024/04/18 16:59:23;;;;;;;0.20;0.20;;;11.30;73.50;;;;;;4842755;29;20480;-77
2024/04/18 17:01:49;;;;;;;0.63;0.30;;;11.20;73.50;;;;;;4842398;29;20057;-74
2024/04/18 17:04:14;;;;;;;0.20;0.20;;;11.10;73.40;;;;;;4825722;29;20046;-76
2024/04/18 17:06:40;;;;;;;0.52;0.20;;;11.10;73.50;;;;;;4842247;29;20042;-76
2024/04/18 17:09:09;;;;;;;0.15;0.15;;;11.00;73.60;;;;;;4842599;29;20125;-77
2024/04/18 17:11:35;;;;;;;0.10;0.10;;;11.10;73.70;;;;;;4825688;29;20509;-77
2024/04/18 17:14:01;;;;;;;0.20;0.20;;;11.00;73.70;;;;;;4842679;29;20045;-77
2024/04/18 17:16:27;;;;;;;0.32;0.20;;;11.00;73.70;;;;;;4841199;29;20065;-76
2024/04/18 17:18:53;;;;;;;0.30;0.20;;;10.90;73.70;;;;;;4810373;29;20042;-77
2024/04/18 17:21:18;;;;;;;0.30;0.20;;;10.90;73.80;;;;;;4842434;29;20149;-77
2024/04/18 17:23:45;;;;;;;0.10;0.10;;;10.90;73.70;;;;;;4811241;29;21558;-76
2024/04/18 17:26:10;;;;;;;0.90;0.30;;;10.80;73.60;;;;;;4841944;29;20061;-76
2024/04/18 17:28:36;;;;;;;0.20;0.20;;;10.90;73.70;;;;;;4810361;29;20045;-76
2024/04/18 17:31:03;;;;;;;0.20;0.20;;;10.80;73.70;;;;;;4842191;29;20042;-76
2024/04/18 17:33:29;;;;;;;0.10;0.10;;;10.70;73.80;;;;;;4841845;29;20038;-75
2024/04/18 17:35:55;;;;;;;0.40;0.20;;;10.70;73.90;;;;;;4841978;29;20508;-75
2024/04/18 17:38:21;;;;;;;0.85;0.30;;;10.70;73.90;;;;;;4809636;29;20042;-77
2024/04/18 17:40:46;;;;;;;0.30;0.25;;;10.60;74.00;;;;;;4842095;29;20057;-77
2024/04/18 17:43:12;;;;;;;0.28;0.20;;;10.60;74.10;;;;;;4825813;29;20045;-78
2024/04/18 17:45:38;;;;;;;0.50;0.30;;;10.50;74.10;;;;;;4825242;29;20052;-78
2024/04/18 17:48:05;;;;;;;0.20;0.20;;;10.50;74.10;;;;;;4825273;29;20093;-77
2024/04/18 17:50:34;;;;;;;0.10;0.10;;;10.40;74.10;;;;;;4810884;29;20065;-77
2024/04/18 17:53:00;;;;;;;0.10;0.10;;;10.40;74.30;;;;;;4825047;29;20446;-77
2024/04/18 17:55:28;;;;;;;0.20;0.20;;;10.30;74.30;;;;;;4841959;29;20034;-78
2024/04/18 17:57:54;;;;;;;0.20;0.20;;;10.30;74.40;;;;;;4820488;29;20046;-77
2024/04/18 18:00:20;;;;;;;0.20;0.20;;;10.20;74.50;;;;;;4805768;29;20058;-77
2024/04/18 18:02:49;;;;;;;0.47;0.25;;;10.30;74.60;;;;;;4791008;29;20045;-78
2024/04/18 18:05:15;;;;;;;0.10;0.10;;;10.20;74.70;;;;;;4821163;29;20054;-76
2024/04/18 18:07:42;;;;;;;0.75;0.30;;;10.20;74.70;;;;;;4806338;29;20141;-76
2024/04/18 18:10:08;;;;;;;0.65;0.30;;;10.10;74.80;;;;;;4806183;29;20153;-76
2024/04/18 18:12:34;;;;;;;0.63;0.30;;;10.00;74.80;;;;;;4805719;29;20103;-76
2024/04/18 18:15:00;;;;;;;0.10;0.10;;;9.90;74.90;;;;;;4806328;29;20444;-76
2024/04/18 18:17:25;;;;;;;0.10;0.10;;;9.90;75.00;;;;;;4806028;29;20196;-76
2024/04/18 18:19:51;;;;;;;0.20;0.20;;;9.80;75.00;;;;;;4805800;29;20115;-75
2024/04/18 18:51:47;;;;;;;0.25;0.20;;;9.30;75.60;;;;;;4728637;30;20117;-74
2024/04/18 18:54:13;;;;;;;0.10;0.10;;;9.30;75.80;;;;;;4727296;30;20044;-75
2024/04/18 18:56:42;;;;;;;0.10;0.10;;;9.20;75.80;;;;;;4772965;30;20481;-75
2024/04/18 18:59:11;;;;;;;0.10;0.10;;;9.20;75.80;;;;;;4769405;30;20460;-76